PS69 weather

Barnhart Airport
Flinton, Pennsylvania, United States

Public forecast

Using degrees Fahrenheit for public forecast. Weather courtesy of forecast.io.

METAR (pilot weather report)

Closest report is Clearfield Lawrence Airport, 20.1 nm (37.3 km) NNE. Retrieved 2019/05/19 13:54 UTC (26 minutes ago):

KFIG 191354Z AUTO 00000KT 10SM CLR 22/17 A2999 RMK AO2 SLP147 T02220172 $

TAF (pilot weather forecast)

Closest forecast is Altoona Blair County Airport, 27.7 nm (51.4 km) SSE. Retrieved 2019/05/19 12:54 UTC (1 hour ago):

TAF KAOO 191150Z 1912/2012 VRB02KT 4SM BR FEW060 FM191230 19006KT P6SM SCT050 FM191600 20008KT P6SM VCSH BKN040 FM191800 21010G16KT P6SM -SHRA VCTS BKN040CB FM200000 22007KT P6SM BKN050